sensor_id;sensor_type;location;lat;lon;timestamp;P1;durP1;ratioP1;P2;durP2;ratioP2
71629;SDS011;59479;51.902;8.212;2022-09-09T00:03:40;5.85;;;1.42;;
71629;SDS011;59479;51.902;8.212;2022-09-09T00:06:21;3.92;;;1.58;;
71629;SDS011;59479;51.902;8.212;2022-09-09T00:09:01;4.70;;;1.45;;
71629;SDS011;59479;51.902;8.212;2022-09-09T00:14:45;3.53;;;1.42;;
71629;SDS011;59479;51.902;8.212;2022-09-09T00:17:30;3.92;;;1.30;;
71629;SDS011;59479;51.902;8.212;2022-09-09T00:22:36;3.70;;;1.27;;
71629;SDS011;59479;51.902;8.212;2022-09-09T00:25:11;3.80;;;1.30;;
71629;SDS011;59479;51.902;8.212;2022-09-09T00:30:30;5.07;;;1.40;;
71629;SDS011;59479;51.902;8.212;2022-09-09T00:33:00;4.80;;;1.48;;
71629;SDS011;59479;51.902;8.212;2022-09-09T00:35:31;4.40;;;1.53;;
71629;SDS011;59479;51.902;8.212;2022-09-09T00:38:03;2.70;;;1.20;;
71629;SDS011;59479;51.902;8.212;2022-09-09T00:40:39;3.45;;;1.25;;
71629;SDS011;59479;51.902;8.212;2022-09-09T00:43:28;4.13;;;1.38;;
71629;SDS011;59479;51.902;8.212;2022-09-09T00:48:36;4.10;;;1.50;;
71629;SDS011;59479;51.902;8.212;2022-09-09T00:51:15;5.63;;;1.42;;
71629;SDS011;59479;51.902;8.212;2022-09-09T00:54:01;5.47;;;1.77;;
71629;SDS011;59479;51.902;8.212;2022-09-09T00:56:38;3.83;;;1.60;;
71629;SDS011;59479;51.902;8.212;2022-09-09T01:02:26;4.38;;;1.55;;
71629;SDS011;59479;51.902;8.212;2022-09-09T01:04:54;3.67;;;1.13;;
71629;SDS011;59479;51.902;8.212;2022-09-09T01:07:21;3.20;;;1.30;;
71629;SDS011;59479;51.902;8.212;2022-09-09T01:14:58;3.97;;;1.30;;
71629;SDS011;59479;51.902;8.212;2022-09-09T01:17:34;3.95;;;1.30;;
71629;SDS011;59479;51.902;8.212;2022-09-09T01:28:22;3.53;;;1.13;;
71629;SDS011;59479;51.902;8.212;2022-09-09T01:30:51;4.57;;;1.20;;
71629;SDS011;59479;51.902;8.212;2022-09-09T01:33:18;3.88;;;1.13;;
71629;SDS011;59479;51.902;8.212;2022-09-09T01:38:25;3.58;;;1.13;;
71629;SDS011;59479;51.902;8.212;2022-09-09T01:40:51;3.00;;;1.20;;
71629;SDS011;59479;51.902;8.212;2022-09-09T01:43:18;3.85;;;1.15;;
71629;SDS011;59479;51.902;8.212;2022-09-09T01:45:49;6.00;;;1.30;;
71629;SDS011;59479;51.902;8.212;2022-09-09T01:48:18;4.20;;;1.20;;
71629;SDS011;59479;51.902;8.212;2022-09-09T01:50:44;4.20;;;1.02;;
71629;SDS011;59479;51.902;8.212;2022-09-09T01:53:09;3.80;;;1.30;;
71629;SDS011;59479;51.902;8.212;2022-09-09T01:55:53;3.53;;;1.30;;
71629;SDS011;59479;51.902;8.212;2022-09-09T02:07:26;3.80;;;1.13;;
71629;SDS011;59479;51.902;8.212;2022-09-09T02:12:44;4.43;;;1.20;;
71629;SDS011;59479;51.902;8.212;2022-09-09T02:15:22;3.78;;;0.98;;
71629;SDS011;59479;51.902;8.212;2022-09-09T02:17:58;5.85;;;1.50;;
71629;SDS011;59479;51.902;8.212;2022-09-09T02:20:34;3.70;;;1.00;;
71629;SDS011;59479;51.902;8.212;2022-09-09T02:23:03;3.97;;;1.10;;
71629;SDS011;59479;51.902;8.212;2022-09-09T02:25:36;4.55;;;1.30;;
71629;SDS011;59479;51.902;8.212;2022-09-09T02:28:06;4.32;;;1.00;;
71629;SDS011;59479;51.902;8.212;2022-09-09T02:30:48;3.67;;;1.25;;
71629;SDS011;59479;51.902;8.212;2022-09-09T02:33:26;3.27;;;1.00;;
71629;SDS011;59479;51.902;8.212;2022-09-09T02:36:07;4.38;;;1.40;;
71629;SDS011;59479;51.902;8.212;2022-09-09T02:38:42;3.53;;;1.10;;
71629;SDS011;59479;51.902;8.212;2022-09-09T02:41:28;4.63;;;1.20;;
71629;SDS011;59479;51.902;8.212;2022-09-09T02:44:21;4.30;;;1.10;;
71629;SDS011;59479;51.902;8.212;2022-09-09T02:47:09;4.47;;;1.00;;
71629;SDS011;59479;51.902;8.212;2022-09-09T02:56:25;6.53;;;1.33;;
71629;SDS011;59479;51.902;8.212;2022-09-09T02:59:04;6.18;;;1.40;;
71629;SDS011;59479;51.902;8.212;2022-09-09T03:01:38;4.17;;;1.20;;
71629;SDS011;59479;51.902;8.212;2022-09-09T03:04:06;4.93;;;1.38;;
71629;SDS011;59479;51.902;8.212;2022-09-09T03:06:40;4.22;;;1.27;;
71629;SDS011;59479;51.902;8.212;2022-09-09T03:09:09;3.58;;;1.35;;
71629;SDS011;59479;51.902;8.212;2022-09-09T03:11:44;4.65;;;1.50;;
71629;SDS011;59479;51.902;8.212;2022-09-09T03:14:15;3.90;;;1.50;;
71629;SDS011;59479;51.902;8.212;2022-09-09T03:16:49;4.97;;;1.48;;
71629;SDS011;59479;51.902;8.212;2022-09-09T03:19:17;5.03;;;1.35;;
71629;SDS011;59479;51.902;8.212;2022-09-09T03:21:53;3.03;;;1.40;;
71629;SDS011;59479;51.902;8.212;2022-09-09T03:24:19;4.95;;;1.30;;
71629;SDS011;59479;51.902;8.212;2022-09-09T03:26:45;3.73;;;1.50;;
71629;SDS011;59479;51.902;8.212;2022-09-09T03:29:18;5.78;;;1.30;;
71629;SDS011;59479;51.902;8.212;2022-09-09T03:31:43;4.65;;;1.65;;
71629;SDS011;59479;51.902;8.212;2022-09-09T03:34:10;6.40;;;1.30;;
71629;SDS011;59479;51.902;8.212;2022-09-09T03:36:42;5.53;;;1.50;;
71629;SDS011;59479;51.902;8.212;2022-09-09T03:39:13;5.22;;;1.30;;
71629;SDS011;59479;51.902;8.212;2022-09-09T03:41:44;4.85;;;1.50;;
71629;SDS011;59479;51.902;8.212;2022-09-09T03:44:22;3.83;;;1.52;;
71629;SDS011;59479;51.902;8.212;2022-09-09T03:46:47;5.87;;;1.40;;
71629;SDS011;59479;51.902;8.212;2022-09-09T03:49:21;4.70;;;1.38;;
71629;SDS011;59479;51.902;8.212;2022-09-09T03:51:55;6.25;;;1.48;;
71629;SDS011;59479;51.902;8.212;2022-09-09T03:54:32;5.97;;;1.60;;
71629;SDS011;59479;51.902;8.212;2022-09-09T03:57:13;3.33;;;1.30;;
71629;SDS011;59479;51.902;8.212;2022-09-09T04:00:15;4.00;;;1.30;;
71629;SDS011;59479;51.902;8.212;2022-09-09T04:02:47;6.18;;;1.40;;
71629;SDS011;59479;51.902;8.212;2022-09-09T04:05:23;5.28;;;1.60;;
71629;SDS011;59479;51.902;8.212;2022-09-09T04:08:11;6.55;;;1.40;;
71629;SDS011;59479;51.902;8.212;2022-09-09T04:10:57;6.18;;;1.42;;
71629;SDS011;59479;51.902;8.212;2022-09-09T04:13:29;3.67;;;1.00;;
71629;SDS011;59479;51.902;8.212;2022-09-09T04:15:58;3.78;;;1.30;;
71629;SDS011;59479;51.902;8.212;2022-09-09T04:19:25;4.15;;;1.15;;
71629;SDS011;59479;51.902;8.212;2022-09-09T04:22:55;3.58;;;1.30;;
71629;SDS011;59479;51.902;8.212;2022-09-09T04:26:06;6.72;;;1.75;;
71629;SDS011;59479;51.902;8.212;2022-09-09T04:28:37;6.15;;;1.42;;
71629;SDS011;59479;51.902;8.212;2022-09-09T04:31:21;4.75;;;1.35;;
71629;SDS011;59479;51.902;8.212;2022-09-09T04:33:59;4.57;;;1.95;;
71629;SDS011;59479;51.902;8.212;2022-09-09T04:36:33;6.40;;;1.40;;
71629;SDS011;59479;51.902;8.212;2022-09-09T04:39:08;3.55;;;1.30;;
71629;SDS011;59479;51.902;8.212;2022-09-09T04:41:39;4.53;;;1.70;;
71629;SDS011;59479;51.902;8.212;2022-09-09T04:44:16;6.43;;;1.40;;
71629;SDS011;59479;51.902;8.212;2022-09-09T04:49:45;4.72;;;1.48;;
71629;SDS011;59479;51.902;8.212;2022-09-09T04:53:29;3.10;;;1.20;;
71629;SDS011;59479;51.902;8.212;2022-09-09T04:56:15;3.45;;;1.17;;
71629;SDS011;59479;51.902;8.212;2022-09-09T05:02:13;3.92;;;1.40;;
71629;SDS011;59479;51.902;8.212;2022-09-09T05:16:21;3.95;;;1.30;;
71629;SDS011;59479;51.902;8.212;2022-09-09T05:19:14;5.68;;;1.40;;
71629;SDS011;59479;51.902;8.212;2022-09-09T05:22:19;3.90;;;1.33;;
71629;SDS011;59479;51.902;8.212;2022-09-09T05:25:00;6.75;;;1.20;;
71629;SDS011;59479;51.902;8.212;2022-09-09T05:28:00;4.88;;;1.45;;
71629;SDS011;59479;51.902;8.212;2022-09-09T05:31:08;3.83;;;1.38;;
71629;SDS011;59479;51.902;8.212;2022-09-09T05:41:29;5.03;;;1.30;;
71629;SDS011;59479;51.902;8.212;2022-09-09T05:43:59;3.75;;;1.40;;
71629;SDS011;59479;51.902;8.212;2022-09-09T05:46:30;6.53;;;1.80;;
71629;SDS011;59479;51.902;8.212;2022-09-09T05:49:05;4.63;;;1.50;;
71629;SDS011;59479;51.902;8.212;2022-09-09T05:51:38;5.22;;;1.60;;
71629;SDS011;59479;51.902;8.212;2022-09-09T05:54:09;4.88;;;1.70;;
71629;SDS011;59479;51.902;8.212;2022-09-09T05:56:34;5.47;;;1.40;;
71629;SDS011;59479;51.902;8.212;2022-09-09T05:59:00;4.80;;;1.50;;
71629;SDS011;59479;51.902;8.212;2022-09-09T06:01:30;4.40;;;1.40;;
71629;SDS011;59479;51.902;8.212;2022-09-09T06:03:57;3.88;;;1.20;;
71629;SDS011;59479;51.902;8.212;2022-09-09T06:06:24;3.93;;;1.20;;
71629;SDS011;59479;51.902;8.212;2022-09-09T06:08:54;5.50;;;1.65;;
71629;SDS011;59479;51.902;8.212;2022-09-09T06:11:26;4.10;;;1.40;;
71629;SDS011;59479;51.902;8.212;2022-09-09T06:13:56;3.83;;;1.52;;
71629;SDS011;59479;51.902;8.212;2022-09-09T06:16:22;4.87;;;1.73;;
71629;SDS011;59479;51.902;8.212;2022-09-09T06:18:51;4.72;;;1.20;;
71629;SDS011;59479;51.902;8.212;2022-09-09T06:21:20;4.10;;;1.65;;
71629;SDS011;59479;51.902;8.212;2022-09-09T06:23:47;4.97;;;1.50;;
71629;SDS011;59479;51.902;8.212;2022-09-09T06:26:17;3.90;;;1.50;;
71629;SDS011;59479;51.902;8.212;2022-09-09T06:28:47;4.70;;;1.40;;
71629;SDS011;59479;51.902;8.212;2022-09-09T06:31:20;6.40;;;1.30;;
71629;SDS011;59479;51.902;8.212;2022-09-09T06:33:51;5.40;;;1.65;;
71629;SDS011;59479;51.902;8.212;2022-09-09T06:36:21;4.85;;;1.83;;
71629;SDS011;59479;51.902;8.212;2022-09-09T06:38:52;5.78;;;1.60;;
71629;SDS011;59479;51.902;8.212;2022-09-09T06:41:23;5.67;;;1.53;;
71629;SDS011;59479;51.902;8.212;2022-09-09T06:43:52;5.07;;;1.55;;
71629;SDS011;59479;51.902;8.212;2022-09-09T06:46:19;5.68;;;1.83;;
71629;SDS011;59479;51.902;8.212;2022-09-09T06:48:52;5.70;;;1.60;;
71629;SDS011;59479;51.902;8.212;2022-09-09T06:51:23;6.38;;;1.65;;
71629;SDS011;59479;51.902;8.212;2022-09-09T06:53:51;3.30;;;1.23;;
71629;SDS011;59479;51.902;8.212;2022-09-09T06:56:19;4.68;;;1.90;;
71629;SDS011;59479;51.902;8.212;2022-09-09T06:58:48;5.30;;;1.92;;
71629;SDS011;59479;51.902;8.212;2022-09-09T07:01:15;4.05;;;1.40;;
71629;SDS011;59479;51.902;8.212;2022-09-09T07:03:44;4.15;;;1.70;;
71629;SDS011;59479;51.902;8.212;2022-09-09T07:06:16;7.38;;;1.73;;
71629;SDS011;59479;51.902;8.212;2022-09-09T07:08:50;6.07;;;1.58;;
71629;SDS011;59479;51.902;8.212;2022-09-09T07:11:16;6.95;;;1.50;;
71629;SDS011;59479;51.902;8.212;2022-09-09T07:13:50;6.00;;;1.45;;
71629;SDS011;59479;51.902;8.212;2022-09-09T07:16:17;5.20;;;1.80;;
71629;SDS011;59479;51.902;8.212;2022-09-09T07:18:45;4.85;;;1.63;;
71629;SDS011;59479;51.902;8.212;2022-09-09T07:21:11;3.95;;;1.50;;
71629;SDS011;59479;51.902;8.212;2022-09-09T07:23:39;6.40;;;1.40;;
71629;SDS011;59479;51.902;8.212;2022-09-09T07:26:09;6.60;;;1.40;;
71629;SDS011;59479;51.902;8.212;2022-09-09T07:28:35;5.50;;;1.30;;
71629;SDS011;59479;51.902;8.212;2022-09-09T07:31:01;4.97;;;1.60;;
71629;SDS011;59479;51.902;8.212;2022-09-09T07:33:28;6.97;;;1.88;;
71629;SDS011;59479;51.902;8.212;2022-09-09T07:36:04;5.32;;;1.60;;
71629;SDS011;59479;51.902;8.212;2022-09-09T07:38:50;6.38;;;1.90;;
71629;SDS011;59479;51.902;8.212;2022-09-09T07:41:36;4.70;;;1.50;;
71629;SDS011;59479;51.902;8.212;2022-09-09T07:44:06;5.40;;;1.63;;
71629;SDS011;59479;51.902;8.212;2022-09-09T07:46:33;5.40;;;1.60;;
71629;SDS011;59479;51.902;8.212;2022-09-09T07:48:59;4.75;;;1.33;;
71629;SDS011;59479;51.902;8.212;2022-09-09T07:51:26;6.47;;;1.67;;
71629;SDS011;59479;51.902;8.212;2022-09-09T07:53:55;6.00;;;1.60;;
71629;SDS011;59479;51.902;8.212;2022-09-09T07:56:23;5.65;;;1.55;;
71629;SDS011;59479;51.902;8.212;2022-09-09T07:58:50;5.18;;;1.40;;
71629;SDS011;59479;51.902;8.212;2022-09-09T08:01:19;6.60;;;1.80;;
71629;SDS011;59479;51.902;8.212;2022-09-09T08:03:52;5.60;;;1.45;;
71629;SDS011;59479;51.902;8.212;2022-09-09T08:06:19;7.33;;;1.40;;
71629;SDS011;59479;51.902;8.212;2022-09-09T08:08:50;3.72;;;1.17;;
71629;SDS011;59479;51.902;8.212;2022-09-09T08:11:16;5.00;;;1.65;;
71629;SDS011;59479;51.902;8.212;2022-09-09T08:13:43;4.53;;;1.30;;
71629;SDS011;59479;51.902;8.212;2022-09-09T08:18:36;7.78;;;1.80;;
71629;SDS011;59479;51.902;8.212;2022-09-09T08:21:09;6.72;;;1.60;;
71629;SDS011;59479;51.902;8.212;2022-09-09T08:23:37;4.70;;;1.27;;
71629;SDS011;59479;51.902;8.212;2022-09-09T08:26:10;5.93;;;1.25;;
71629;SDS011;59479;51.902;8.212;2022-09-09T08:28:40;5.55;;;1.38;;
71629;SDS011;59479;51.902;8.212;2022-09-09T08:31:17;5.95;;;1.20;;
71629;SDS011;59479;51.902;8.212;2022-09-09T08:33:44;5.53;;;1.20;;
71629;SDS011;59479;51.902;8.212;2022-09-09T08:36:15;5.75;;;1.30;;
71629;SDS011;59479;51.902;8.212;2022-09-09T08:38:43;6.50;;;1.60;;
71629;SDS011;59479;51.902;8.212;2022-09-09T08:44:10;3.97;;;1.40;;
71629;SDS011;59479;51.902;8.212;2022-09-09T08:58:00;4.55;;;1.25;;
71629;SDS011;59479;51.902;8.212;2022-09-09T09:00:38;6.07;;;1.50;;
71629;SDS011;59479;51.902;8.212;2022-09-09T09:03:15;4.90;;;1.38;;
71629;SDS011;59479;51.902;8.212;2022-09-09T09:05:59;4.30;;;1.38;;
71629;SDS011;59479;51.902;8.212;2022-09-09T09:08:43;7.32;;;1.45;;
71629;SDS011;59479;51.902;8.212;2022-09-09T09:11:16;5.35;;;1.02;;
71629;SDS011;59479;51.902;8.212;2022-09-09T09:19:03;4.78;;;1.40;;
71629;SDS011;59479;51.902;8.212;2022-09-09T09:24:01;4.63;;;1.20;;
71629;SDS011;59479;51.902;8.212;2022-09-09T09:26:31;6.45;;;1.67;;
71629;SDS011;59479;51.902;8.212;2022-09-09T09:29:10;5.20;;;1.23;;
71629;SDS011;59479;51.902;8.212;2022-09-09T09:31:45;7.68;;;2.00;;
71629;SDS011;59479;51.902;8.212;2022-09-09T09:34:13;3.47;;;1.23;;
71629;SDS011;59479;51.902;8.212;2022-09-09T09:36:42;4.57;;;1.60;;
71629;SDS011;59479;51.902;8.212;2022-09-09T09:39:21;5.10;;;1.58;;
71629;SDS011;59479;51.902;8.212;2022-09-09T09:41:54;5.65;;;1.58;;
71629;SDS011;59479;51.902;8.212;2022-09-09T09:47:05;8.03;;;1.40;;
71629;SDS011;59479;51.902;8.212;2022-09-09T09:49:39;5.38;;;1.25;;
71629;SDS011;59479;51.902;8.212;2022-09-09T09:52:33;4.80;;;1.52;;
71629;SDS011;59479;51.902;8.212;2022-09-09T09:55:02;4.45;;;1.35;;
71629;SDS011;59479;51.902;8.212;2022-09-09T09:58:13;5.93;;;1.48;;
71629;SDS011;59479;51.902;8.212;2022-09-09T10:00:49;5.57;;;1.37;;
71629;SDS011;59479;51.902;8.212;2022-09-09T10:03:21;4.28;;;1.20;;
71629;SDS011;59479;51.902;8.212;2022-09-09T10:05:48;7.38;;;1.63;;
71629;SDS011;59479;51.902;8.212;2022-09-09T10:08:14;3.90;;;1.27;;
71629;SDS011;59479;51.902;8.212;2022-09-09T10:13:28;4.97;;;1.50;;
71629;SDS011;59479;51.902;8.212;2022-09-09T10:19:13;5.53;;;1.40;;
71629;SDS011;59479;51.902;8.212;2022-09-09T10:43:37;4.87;;;1.37;;
71629;SDS011;59479;51.902;8.212;2022-09-09T10:52:10;5.32;;;1.52;;
71629;SDS011;59479;51.902;8.212;2022-09-09T10:57:33;6.15;;;1.70;;
71629;SDS011;59479;51.902;8.212;2022-09-09T11:00:14;7.85;;;1.63;;
71629;SDS011;59479;51.902;8.212;2022-09-09T11:02:42;5.07;;;1.30;;
71629;SDS011;59479;51.902;8.212;2022-09-09T11:07:51;5.88;;;1.70;;
71629;SDS011;59479;51.902;8.212;2022-09-09T11:10:48;3.77;;;1.10;;
71629;SDS011;59479;51.902;8.212;2022-09-09T11:13:25;3.85;;;1.10;;
71629;SDS011;59479;51.902;8.212;2022-09-09T11:16:02;4.63;;;1.50;;
71629;SDS011;59479;51.902;8.212;2022-09-09T11:18:35;4.55;;;1.38;;
71629;SDS011;59479;51.902;8.212;2022-09-09T11:21:07;5.90;;;1.30;;
71629;SDS011;59479;51.902;8.212;2022-09-09T11:23:40;5.50;;;1.50;;
71629;SDS011;59479;51.902;8.212;2022-09-09T11:26:30;4.80;;;1.38;;
71629;SDS011;59479;51.902;8.212;2022-09-09T11:31:46;4.15;;;1.48;;
71629;SDS011;59479;51.902;8.212;2022-09-09T11:34:19;5.95;;;1.13;;
71629;SDS011;59479;51.902;8.212;2022-09-09T11:36:58;8.43;;;1.50;;
71629;SDS011;59479;51.902;8.212;2022-09-09T11:42:07;4.82;;;1.30;;
71629;SDS011;59479;51.902;8.212;2022-09-09T11:44:39;6.47;;;1.50;;
71629;SDS011;59479;51.902;8.212;2022-09-09T11:47:27;3.58;;;1.00;;
71629;SDS011;59479;51.902;8.212;2022-09-09T11:50:40;4.03;;;1.13;;
71629;SDS011;59479;51.902;8.212;2022-09-09T11:52:43;7.80;;;1.20;;
71629;SDS011;59479;51.902;8.212;2022-09-09T11:58:00;4.05;;;1.33;;
71629;SDS011;59479;51.902;8.212;2022-09-09T12:00:35;4.18;;;1.10;;
71629;SDS011;59479;51.902;8.212;2022-09-09T12:03:05;5.83;;;1.30;;
71629;SDS011;59479;51.902;8.212;2022-09-09T12:05:38;5.32;;;1.30;;
71629;SDS011;59479;51.902;8.212;2022-09-09T12:08:05;4.43;;;1.23;;
71629;SDS011;59479;51.902;8.212;2022-09-09T12:10:34;6.32;;;1.13;;
71629;SDS011;59479;51.902;8.212;2022-09-09T12:13:15;4.95;;;1.63;;
71629;SDS011;59479;51.902;8.212;2022-09-09T12:15:52;4.63;;;1.10;;
71629;SDS011;59479;51.902;8.212;2022-09-09T12:18:23;3.35;;;1.40;;
71629;SDS011;59479;51.902;8.212;2022-09-09T12:21:34;4.75;;;1.50;;
71629;SDS011;59479;51.902;8.212;2022-09-09T12:23:58;5.47;;;1.40;;
71629;SDS011;59479;51.902;8.212;2022-09-09T12:26:42;4.72;;;1.35;;
71629;SDS011;59479;51.902;8.212;2022-09-09T12:29:18;4.40;;;1.20;;
71629;SDS011;59479;51.902;8.212;2022-09-09T12:34:38;4.35;;;1.50;;
71629;SDS011;59479;51.902;8.212;2022-09-09T12:40:00;4.82;;;1.70;;
71629;SDS011;59479;51.902;8.212;2022-09-09T12:42:28;5.20;;;1.40;;
71629;SDS011;59479;51.902;8.212;2022-09-09T12:44:58;4.70;;;1.50;;
71629;SDS011;59479;51.902;8.212;2022-09-09T12:50:15;5.30;;;1.35;;
71629;SDS011;59479;51.902;8.212;2022-09-09T12:52:43;5.60;;;1.40;;
71629;SDS011;59479;51.902;8.212;2022-09-09T12:55:20;7.68;;;1.63;;
71629;SDS011;59479;51.902;8.212;2022-09-09T12:57:50;4.55;;;1.00;;
71629;SDS011;59479;51.902;8.212;2022-09-09T13:02:52;6.78;;;1.50;;
71629;SDS011;59479;51.902;8.212;2022-09-09T13:05:20;4.75;;;1.30;;
71629;SDS011;59479;51.902;8.212;2022-09-09T13:08:08;4.80;;;1.35;;
71629;SDS011;59479;51.902;8.212;2022-09-09T13:10:57;4.25;;;1.17;;
71629;SDS011;59479;51.902;8.212;2022-09-09T13:13:28;4.13;;;1.42;;
71629;SDS011;59479;51.902;8.212;2022-09-09T13:16:00;3.28;;;1.10;;
71629;SDS011;59479;51.902;8.212;2022-09-09T13:18:30;4.03;;;1.08;;
71629;SDS011;59479;51.902;8.212;2022-09-09T13:20:58;2.60;;;0.98;;
71629;SDS011;59479;51.902;8.212;2022-09-09T13:23:26;3.38;;;1.20;;
71629;SDS011;59479;51.902;8.212;2022-09-09T13:25:55;4.05;;;1.33;;
71629;SDS011;59479;51.902;8.212;2022-09-09T13:28:23;4.13;;;0.95;;
71629;SDS011;59479;51.902;8.212;2022-09-09T13:31:24;3.13;;;1.10;;
71629;SDS011;59479;51.902;8.212;2022-09-09T13:33:46;3.63;;;1.42;;
71629;SDS011;59479;51.902;8.212;2022-09-09T13:36:11;3.27;;;1.00;;
71629;SDS011;59479;51.902;8.212;2022-09-09T13:41:19;3.78;;;1.23;;
71629;SDS011;59479;51.902;8.212;2022-09-09T13:43:47;3.83;;;1.10;;
71629;SDS011;59479;51.902;8.212;2022-09-09T13:46:34;4.03;;;1.10;;
71629;SDS011;59479;51.902;8.212;2022-09-09T13:49:03;3.40;;;1.00;;
71629;SDS011;59479;51.902;8.212;2022-09-09T13:51:45;4.03;;;1.20;;
71629;SDS011;59479;51.902;8.212;2022-09-09T13:54:27;4.93;;;1.17;;
71629;SDS011;59479;51.902;8.212;2022-09-09T13:56:56;4.87;;;1.00;;
71629;SDS011;59479;51.902;8.212;2022-09-09T14:02:25;2.97;;;1.00;;
71629;SDS011;59479;51.902;8.212;2022-09-09T14:04:51;3.33;;;0.87;;
71629;SDS011;59479;51.902;8.212;2022-09-09T14:07:19;4.32;;;1.23;;
71629;SDS011;59479;51.902;8.212;2022-09-09T14:09:50;3.90;;;0.98;;
71629;SDS011;59479;51.902;8.212;2022-09-09T14:12:17;3.03;;;1.03;;
71629;SDS011;59479;51.902;8.212;2022-09-09T14:14:42;4.38;;;0.90;;
71629;SDS011;59479;51.902;8.212;2022-09-09T14:17:08;3.85;;;1.25;;
71629;SDS011;59479;51.902;8.212;2022-09-09T14:19:36;4.70;;;1.30;;
71629;SDS011;59479;51.902;8.212;2022-09-09T14:22:12;6.47;;;1.40;;
71629;SDS011;59479;51.902;8.212;2022-09-09T14:24:37;3.80;;;1.20;;
71629;SDS011;59479;51.902;8.212;2022-09-09T14:27:05;5.03;;;1.20;;
71629;SDS011;59479;51.902;8.212;2022-09-09T14:29:34;3.97;;;1.13;;
71629;SDS011;59479;51.902;8.212;2022-09-09T14:31:59;5.22;;;1.20;;
71629;SDS011;59479;51.902;8.212;2022-09-09T14:34:26;5.13;;;1.60;;
71629;SDS011;59479;51.902;8.212;2022-09-09T14:36:51;4.53;;;1.20;;
71629;SDS011;59479;51.902;8.212;2022-09-09T14:39:16;6.47;;;1.20;;
71629;SDS011;59479;51.902;8.212;2022-09-09T14:41:42;4.70;;;1.30;;
71629;SDS011;59479;51.902;8.212;2022-09-09T14:44:08;3.83;;;1.50;;
71629;SDS011;59479;51.902;8.212;2022-09-09T14:46:33;4.30;;;1.10;;
71629;SDS011;59479;51.902;8.212;2022-09-09T14:48:59;4.17;;;1.53;;
71629;SDS011;59479;51.902;8.212;2022-09-09T14:51:24;3.30;;;0.95;;
71629;SDS011;59479;51.902;8.212;2022-09-09T14:53:52;2.83;;;0.93;;
71629;SDS011;59479;51.902;8.212;2022-09-09T14:56:25;3.78;;;1.00;;
71629;SDS011;59479;51.902;8.212;2022-09-09T14:58:55;3.17;;;1.15;;
71629;SDS011;59479;51.902;8.212;2022-09-09T15:01:21;3.35;;;1.13;;
71629;SDS011;59479;51.902;8.212;2022-09-09T15:03:54;4.90;;;1.00;;
71629;SDS011;59479;51.902;8.212;2022-09-09T15:06:20;3.90;;;1.00;;
71629;SDS011;59479;51.902;8.212;2022-09-09T15:08:46;3.65;;;0.93;;
71629;SDS011;59479;51.902;8.212;2022-09-09T15:11:13;4.63;;;1.10;;
71629;SDS011;59479;51.902;8.212;2022-09-09T15:13:40;3.58;;;1.15;;
71629;SDS011;59479;51.902;8.212;2022-09-09T15:16:08;4.13;;;1.00;;
71629;SDS011;59479;51.902;8.212;2022-09-09T15:18:35;3.23;;;1.00;;
71629;SDS011;59479;51.902;8.212;2022-09-09T15:21:02;3.15;;;1.02;;
71629;SDS011;59479;51.902;8.212;2022-09-09T15:23:31;3.85;;;1.35;;
71629;SDS011;59479;51.902;8.212;2022-09-09T15:25:59;4.25;;;1.30;;
71629;SDS011;59479;51.902;8.212;2022-09-09T15:28:25;3.73;;;0.87;;
71629;SDS011;59479;51.902;8.212;2022-09-09T15:30:51;5.38;;;1.30;;
71629;SDS011;59479;51.902;8.212;2022-09-09T15:33:18;4.40;;;1.38;;
71629;SDS011;59479;51.902;8.212;2022-09-09T15:35:44;3.58;;;0.95;;
71629;SDS011;59479;51.902;8.212;2022-09-09T15:38:47;4.05;;;1.00;;
71629;SDS011;59479;51.902;8.212;2022-09-09T15:41:12;3.42;;;1.17;;
71629;SDS011;59479;51.902;8.212;2022-09-09T15:43:38;6.03;;;1.33;;
71629;SDS011;59479;51.902;8.212;2022-09-09T15:48:41;3.97;;;1.25;;
71629;SDS011;59479;51.902;8.212;2022-09-09T15:51:07;3.93;;;1.10;;
71629;SDS011;59479;51.902;8.212;2022-09-09T15:53:34;4.88;;;1.35;;
71629;SDS011;59479;51.902;8.212;2022-09-09T15:56:00;7.13;;;1.53;;
71629;SDS011;59479;51.902;8.212;2022-09-09T15:58:25;4.30;;;1.13;;
71629;SDS011;59479;51.902;8.212;2022-09-09T16:00:55;5.40;;;1.40;;
71629;SDS011;59479;51.902;8.212;2022-09-09T16:03:40;3.38;;;1.10;;
71629;SDS011;59479;51.902;8.212;2022-09-09T16:06:15;4.90;;;1.38;;
71629;SDS011;59479;51.902;8.212;2022-09-09T16:08:43;4.78;;;1.33;;
71629;SDS011;59479;51.902;8.212;2022-09-09T16:11:11;4.22;;;1.10;;
71629;SDS011;59479;51.902;8.212;2022-09-09T16:13:39;4.57;;;1.20;;
71629;SDS011;59479;51.902;8.212;2022-09-09T16:16:06;4.50;;;1.23;;
71629;SDS011;59479;51.902;8.212;2022-09-09T16:21:04;5.15;;;1.58;;
71629;SDS011;59479;51.902;8.212;2022-09-09T16:23:31;3.80;;;1.38;;
71629;SDS011;59479;51.902;8.212;2022-09-09T16:25:57;4.07;;;1.15;;
71629;SDS011;59479;51.902;8.212;2022-09-09T16:28:23;5.72;;;1.15;;
71629;SDS011;59479;51.902;8.212;2022-09-09T16:30:48;4.10;;;1.40;;
71629;SDS011;59479;51.902;8.212;2022-09-09T16:33:14;4.07;;;1.20;;
71629;SDS011;59479;51.902;8.212;2022-09-09T16:35:43;5.50;;;1.60;;
71629;SDS011;59479;51.902;8.212;2022-09-09T16:38:09;6.07;;;2.37;;
71629;SDS011;59479;51.902;8.212;2022-09-09T16:40:35;4.65;;;1.77;;
71629;SDS011;59479;51.902;8.212;2022-09-09T16:43:01;5.10;;;1.20;;
71629;SDS011;59479;51.902;8.212;2022-09-09T16:45:27;3.55;;;1.30;;
71629;SDS011;59479;51.902;8.212;2022-09-09T16:47:53;4.13;;;1.23;;
71629;SDS011;59479;51.902;8.212;2022-09-09T16:50:18;5.80;;;1.20;;
71629;SDS011;59479;51.902;8.212;2022-09-09T16:52:44;5.40;;;1.40;;
71629;SDS011;59479;51.902;8.212;2022-09-09T16:55:09;5.57;;;1.00;;
71629;SDS011;59479;51.902;8.212;2022-09-09T16:57:34;4.53;;;1.00;;
71629;SDS011;59479;51.902;8.212;2022-09-09T17:00:00;3.93;;;1.10;;
71629;SDS011;59479;51.902;8.212;2022-09-09T17:02:29;3.53;;;1.15;;
71629;SDS011;59479;51.902;8.212;2022-09-09T17:04:55;3.97;;;0.90;;
71629;SDS011;59479;51.902;8.212;2022-09-09T17:07:20;6.17;;;1.50;;
71629;SDS011;59479;51.902;8.212;2022-09-09T17:09:45;5.00;;;1.23;;
71629;SDS011;59479;51.902;8.212;2022-09-09T17:12:11;5.03;;;1.20;;
71629;SDS011;59479;51.902;8.212;2022-09-09T17:14:37;3.30;;;0.97;;
71629;SDS011;59479;51.902;8.212;2022-09-09T17:17:02;3.45;;;1.02;;
71629;SDS011;59479;51.902;8.212;2022-09-09T17:19:29;4.72;;;1.20;;
71629;SDS011;59479;51.902;8.212;2022-09-09T17:21:55;3.72;;;1.10;;
71629;SDS011;59479;51.902;8.212;2022-09-09T17:24:24;3.35;;;1.20;;
71629;SDS011;59479;51.902;8.212;2022-09-09T17:26:51;4.07;;;1.27;;
71629;SDS011;59479;51.902;8.212;2022-09-09T17:29:17;3.47;;;1.00;;
71629;SDS011;59479;51.902;8.212;2022-09-09T17:31:42;4.68;;;1.10;;
71629;SDS011;59479;51.902;8.212;2022-09-09T17:34:08;4.20;;;1.00;;
71629;SDS011;59479;51.902;8.212;2022-09-09T17:36:33;9.52;;;1.45;;
71629;SDS011;59479;51.902;8.212;2022-09-09T17:39:00;9.47;;;1.60;;
71629;SDS011;59479;51.902;8.212;2022-09-09T17:41:32;9.93;;;1.90;;
71629;SDS011;59479;51.902;8.212;2022-09-09T17:44:02;6.97;;;1.65;;
71629;SDS011;59479;51.902;8.212;2022-09-09T17:46:30;8.27;;;1.85;;
71629;SDS011;59479;51.902;8.212;2022-09-09T17:48:59;5.82;;;1.80;;
71629;SDS011;59479;51.902;8.212;2022-09-09T17:51:28;7.85;;;2.15;;
71629;SDS011;59479;51.902;8.212;2022-09-09T17:53:58;8.82;;;2.20;;
71629;SDS011;59479;51.902;8.212;2022-09-09T17:56:26;10.48;;;2.80;;
71629;SDS011;59479;51.902;8.212;2022-09-09T17:58:58;10.90;;;3.50;;
71629;SDS011;59479;51.902;8.212;2022-09-09T18:01:26;6.43;;;2.95;;
71629;SDS011;59479;51.902;8.212;2022-09-09T18:03:53;6.78;;;2.70;;
71629;SDS011;59479;51.902;8.212;2022-09-09T18:06:22;8.05;;;3.33;;
71629;SDS011;59479;51.902;8.212;2022-09-09T18:08:53;5.18;;;2.20;;
71629;SDS011;59479;51.902;8.212;2022-09-09T18:11:20;5.22;;;1.73;;
71629;SDS011;59479;51.902;8.212;2022-09-09T18:13:51;4.55;;;1.80;;